createdAt,value
2017-12-12T00:02:10.217Z,97435.83
2017-12-12T00:04:37.780Z,97437.05
2017-12-12T00:07:05.325Z,97428.39
2017-12-12T00:09:32.836Z,97440.00
2017-12-12T00:12:00.443Z,97441.88
2017-12-12T00:14:27.933Z,97443.88
2017-12-12T00:16:55.434Z,97443.91
2017-12-12T00:19:22.942Z,97446.72
2017-12-12T00:21:50.470Z,97465.33
2017-12-12T00:24:18.013Z,97468.20
2017-12-12T00:26:45.519Z,97471.23
2017-12-12T00:29:13.059Z,97461.91
2017-12-12T00:31:40.812Z,97456.70
2017-12-12T00:34:08.306Z,97469.30
2017-12-12T00:36:35.800Z,97479.81
2017-12-12T00:39:03.273Z,97484.83
2017-12-12T00:41:31.710Z,97484.38
2017-12-12T00:43:59.212Z,97480.75
2017-12-12T00:46:26.684Z,97490.77
2017-12-12T00:48:54.161Z,97494.19
2017-12-12T00:51:21.644Z,97499.13
2017-12-12T00:53:49.153Z,97502.82
2017-12-12T00:56:16.644Z,97517.42
2017-12-12T00:58:44.157Z,97519.89
2017-12-12T01:01:11.663Z,97524.47
2017-12-12T01:03:39.175Z,97523.09
2017-12-12T01:06:06.648Z,97522.94
2017-12-12T01:08:34.143Z,97522.73
2017-12-12T01:11:01.635Z,97534.14
2017-12-12T01:13:29.156Z,97533.13
2017-12-12T01:15:56.663Z,97527.98
2017-12-12T01:18:24.208Z,97536.60
2017-12-12T01:20:51.715Z,97547.08
2017-12-12T01:23:19.201Z,97542.82
2017-12-12T01:25:46.704Z,97547.14
2017-12-12T01:28:14.185Z,97537.92
2017-12-12T01:30:41.683Z,97541.05
2017-12-12T01:33:09.165Z,97546.02
2017-12-12T01:35:36.657Z,97547.23
2017-12-12T01:38:04.140Z,97548.18
2017-12-12T01:40:31.651Z,97553.94
2017-12-12T01:42:59.758Z,97554.93
2017-12-12T01:45:27.259Z,97557.98
2017-12-12T01:47:54.740Z,97559.80
2017-12-12T01:50:22.234Z,97565.01
2017-12-12T01:52:49.710Z,97572.78
2017-12-12T01:55:17.193Z,97571.30
2017-12-12T01:57:44.753Z,97572.55
2017-12-12T02:00:12.245Z,97582.70
2017-12-12T02:02:40.200Z,97581.48
2017-12-12T02:05:07.687Z,97590.27
2017-12-12T02:07:35.193Z,97583.87
2017-12-12T02:10:02.696Z,97602.63
2017-12-12T02:12:30.194Z,97611.05
2017-12-12T02:14:57.702Z,97603.31
2017-12-12T02:17:25.177Z,97602.84
2017-12-12T02:19:52.665Z,97608.19
2017-12-12T02:22:20.147Z,97601.23
2017-12-12T02:24:47.683Z,97604.23
2017-12-12T02:27:15.153Z,97605.95
2017-12-12T02:29:42.637Z,97610.50
2017-12-12T02:32:10.125Z,97624.71
2017-12-12T02:34:37.600Z,97633.41
2017-12-12T02:37:05.093Z,97642.94
2017-12-12T02:39:32.611Z,97645.27
2017-12-12T02:42:00.100Z,97651.23
2017-12-12T02:44:27.610Z,97660.92
2017-12-12T02:46:55.115Z,97658.77
2017-12-12T02:49:22.632Z,97670.20
2017-12-12T02:51:50.105Z,97676.80
2017-12-12T02:54:17.584Z,97670.55
2017-12-12T02:56:45.087Z,97670.14
2017-12-12T02:59:12.592Z,97670.33
2017-12-12T03:01:40.095Z,97676.35
2017-12-12T03:04:07.568Z,97675.35
2017-12-12T03:06:35.067Z,97681.45
2017-12-12T03:09:02.742Z,97677.98
2017-12-12T03:11:30.237Z,97692.84
2017-12-12T03:13:57.739Z,97691.47
2017-12-12T03:16:25.220Z,97699.89
2017-12-12T03:18:52.712Z,97702.49
2017-12-12T03:21:20.214Z,97713.78
2017-12-12T03:23:47.704Z,97718.34
2017-12-12T03:26:15.201Z,97719.28
2017-12-12T03:28:42.695Z,97724.95
2017-12-12T03:31:10.181Z,97729.16
2017-12-12T03:33:37.720Z,97733.62
2017-12-12T03:36:05.237Z,97736.05
2017-12-12T03:38:32.776Z,97739.64
2017-12-12T03:41:00.300Z,97739.75
2017-12-12T03:43:27.790Z,97741.49
2017-12-12T03:45:55.301Z,97732.18
2017-12-12T03:48:22.795Z,97748.88
2017-12-12T03:50:50.285Z,97750.22
2017-12-12T03:53:17.827Z,97761.73
2017-12-12T03:55:45.355Z,97764.28
2017-12-12T03:58:13.027Z,97750.92
2017-12-12T04:00:40.517Z,97782.03
2017-12-12T04:03:07.995Z,97787.05
2017-12-12T04:05:35.508Z,97799.06
2017-12-12T04:08:03.003Z,97803.19
2017-12-12T04:10:30.486Z,97803.34
2017-12-12T04:12:57.979Z,97815.27
2017-12-12T04:15:25.476Z,97823.10
2017-12-12T04:17:52.962Z,97835.45
2017-12-12T04:20:20.470Z,97839.40
2017-12-12T04:22:47.986Z,97848.70
2017-12-12T04:25:16.273Z,97860.95
2017-12-12T04:27:43.794Z,97877.70
2017-12-12T04:30:11.304Z,97885.89
2017-12-12T04:32:38.791Z,97885.18
2017-12-12T04:35:06.277Z,97890.94
2017-12-12T04:37:33.760Z,97892.27
2017-12-12T04:40:02.051Z,97905.46
2017-12-12T04:42:29.537Z,97909.52
2017-12-12T04:44:57.035Z,97933.34
2017-12-12T04:47:24.516Z,97939.12
2017-12-12T04:49:51.997Z,97953.45
2017-12-12T04:52:19.522Z,97964.86
2017-12-12T04:54:47.020Z,97977.97
2017-12-12T04:57:14.527Z,97987.41
2017-12-12T04:59:42.041Z,98002.09
2017-12-12T05:02:09.562Z,98003.33
2017-12-12T05:04:37.042Z,98034.31
2017-12-12T05:07:04.532Z,98045.58
2017-12-12T05:09:32.043Z,98063.31
2017-12-12T05:11:59.541Z,98076.91
2017-12-12T05:14:27.051Z,98091.89
2017-12-12T05:16:54.576Z,98108.56
2017-12-12T05:19:22.057Z,98121.13
2017-12-12T05:21:49.535Z,98122.36
2017-12-12T05:24:17.024Z,98137.68
2017-12-12T05:26:44.509Z,98130.94
2017-12-12T05:29:11.985Z,98139.90
2017-12-12T05:31:39.497Z,98146.53
2017-12-12T05:34:06.991Z,98163.19
2017-12-12T05:36:34.507Z,98174.27
2017-12-12T05:39:02.011Z,98203.17
2017-12-12T05:41:29.502Z,98215.98
2017-12-12T05:43:57.050Z,98225.09
2017-12-12T05:46:24.571Z,98219.57
2017-12-12T05:48:52.096Z,98246.36
2017-12-12T05:51:19.572Z,98257.70
2017-12-12T05:53:47.083Z,98256.47
2017-12-12T05:59:12.488Z,98276.59
2017-12-12T06:01:40.004Z,98281.55
2017-12-12T06:04:14.396Z,98303.17
2017-12-12T06:06:41.905Z,98309.00
2017-12-12T06:09:09.398Z,98311.63
2017-12-12T06:11:36.897Z,98324.37
2017-12-12T06:14:05.480Z,98343.44
2017-12-12T06:16:32.983Z,98360.63
2017-12-12T06:19:00.483Z,98364.89
2017-12-12T06:21:27.987Z,98362.44
2017-12-12T06:23:55.495Z,98369.64
2017-12-12T06:26:22.995Z,98375.04
2017-12-12T06:28:50.483Z,98388.80
2017-12-12T06:31:17.986Z,98397.05
2017-12-12T06:33:45.465Z,98417.41
2017-12-12T06:36:12.961Z,98424.05
2017-12-12T06:38:40.494Z,98433.55
2017-12-12T06:41:07.994Z,98453.69
2017-12-12T06:43:35.480Z,98461.30
2017-12-12T06:46:03.019Z,98465.15
2017-12-12T06:48:30.505Z,98474.98
2017-12-12T06:50:58.008Z,98488.15
2017-12-12T06:53:25.476Z,98502.86
2017-12-12T06:55:52.955Z,98504.52
2017-12-12T06:58:20.443Z,98505.84
2017-12-12T07:00:47.939Z,98518.47
2017-12-12T07:03:15.415Z,98520.54
2017-12-12T07:05:43.639Z,98531.48
2017-12-12T07:08:11.127Z,98537.42
2017-12-12T07:10:38.620Z,98545.34
2017-12-12T07:13:06.115Z,98555.70
2017-12-12T07:15:33.626Z,98572.09
2017-12-12T07:18:01.142Z,98577.25
2017-12-12T07:20:28.666Z,98585.27
2017-12-12T07:22:56.143Z,98594.92
2017-12-12T07:25:23.635Z,98604.98
2017-12-12T07:27:51.114Z,98618.88
2017-12-12T07:30:18.621Z,98617.61
2017-12-12T07:32:46.097Z,98625.28
2017-12-12T07:35:13.588Z,98637.44
2017-12-12T07:37:41.089Z,98652.53
2017-12-12T07:40:08.585Z,98668.45
2017-12-12T07:42:36.099Z,98673.97
2017-12-12T07:45:03.600Z,98672.38
2017-12-12T07:47:31.105Z,98680.75
2017-12-12T07:49:58.631Z,98697.59
2017-12-12T07:52:26.119Z,98705.96
2017-12-12T07:54:53.619Z,98716.11
2017-12-12T07:57:21.109Z,98724.45
2017-12-12T07:59:48.597Z,98732.48
2017-12-12T08:02:16.878Z,98737.58
2017-12-12T08:04:44.378Z,98757.38
2017-12-12T08:07:11.914Z,98765.28
2017-12-12T08:09:42.423Z,98784.60
2017-12-12T08:12:09.939Z,98788.78
2017-12-12T08:14:37.447Z,98793.41
2017-12-12T08:17:04.935Z,98805.17
2017-12-12T08:19:32.437Z,98826.66
2017-12-12T08:22:00.387Z,98840.98
2017-12-12T08:24:27.891Z,98849.38
2017-12-12T08:26:55.430Z,98851.92
2017-12-12T08:29:22.929Z,98869.22
2017-12-12T08:31:51.076Z,98878.05
2017-12-12T08:34:18.573Z,98896.53
2017-12-12T08:36:46.093Z,98902.81
2017-12-12T08:39:13.589Z,98909.50
2017-12-12T08:41:41.101Z,98917.08
2017-12-12T08:44:08.605Z,98916.59
2017-12-12T08:46:36.094Z,98940.56
2017-12-12T08:49:03.657Z,98954.45
2017-12-12T08:51:31.166Z,98956.91
2017-12-12T08:53:58.726Z,98952.69
2017-12-12T08:56:26.217Z,98974.58
2017-12-12T08:58:53.744Z,98972.08
2017-12-12T09:01:21.228Z,98975.86
2017-12-12T09:03:48.731Z,98984.29
2017-12-12T09:06:16.270Z,98996.85
2017-12-12T09:08:44.213Z,98998.19
2017-12-12T09:11:11.717Z,99005.75
2017-12-12T09:13:39.625Z,99007.38
2017-12-12T09:16:07.130Z,99018.78
2017-12-12T09:18:34.618Z,99021.68
2017-12-12T09:21:02.134Z,99003.57
2017-12-12T09:23:29.641Z,99022.95
2017-12-12T09:25:57.151Z,99035.14
2017-12-12T09:28:24.660Z,99034.72
2017-12-12T09:30:52.165Z,99049.00
2017-12-12T09:33:19.651Z,99042.27
2017-12-12T09:35:47.157Z,99057.41
2017-12-12T09:38:14.664Z,99064.16
2017-12-12T09:40:42.173Z,99062.04
2017-12-12T09:43:09.690Z,99078.03
2017-12-12T09:45:37.168Z,99077.16
2017-12-12T09:48:04.651Z,99082.19
2017-12-12T09:50:32.148Z,99091.41
2017-12-12T09:52:59.625Z,99096.08
2017-12-12T09:55:27.120Z,99101.52
2017-12-12T09:57:54.618Z,99105.73
2017-12-12T10:00:22.093Z,99114.98
2017-12-12T10:02:49.589Z,99112.06
2017-12-12T10:05:17.455Z,99125.52
2017-12-12T10:07:44.946Z,99137.31
2017-12-12T10:10:12.443Z,99139.39
2017-12-12T10:12:39.934Z,99144.01
2017-12-12T10:15:07.420Z,99150.36
2017-12-12T10:17:34.909Z,99148.21
2017-12-12T10:20:02.421Z,99149.44
2017-12-12T10:22:29.902Z,99161.67
2017-12-12T10:24:57.392Z,99168.83
2017-12-12T10:27:24.919Z,99172.63
2017-12-12T10:29:52.405Z,99178.92
2017-12-12T10:32:19.913Z,99179.79
2017-12-12T10:34:47.407Z,99184.83
2017-12-12T10:37:14.910Z,99188.19
2017-12-12T10:39:42.414Z,99185.23
2017-12-12T10:42:09.907Z,99190.30
2017-12-12T10:44:37.380Z,99194.94
2017-12-12T10:47:04.911Z,99198.69
2017-12-12T10:49:32.451Z,99191.94
2017-12-12T10:51:59.941Z,99201.95
2017-12-12T10:54:28.375Z,99210.38
2017-12-12T10:56:56.649Z,99212.48
2017-12-12T10:59:24.149Z,99214.16
2017-12-12T11:01:51.661Z,99217.08
2017-12-12T11:04:19.136Z,99229.72
2017-12-12T11:06:46.618Z,99236.03
2017-12-12T11:09:14.136Z,99239.86
2017-12-12T11:11:41.627Z,99242.42
2017-12-12T11:14:09.114Z,99251.22
2017-12-12T11:16:36.632Z,99253.39
2017-12-12T11:19:04.177Z,99251.66
2017-12-12T11:21:31.685Z,99261.77
2017-12-12T11:23:59.209Z,99260.12
2017-12-12T11:26:26.707Z,99250.41
2017-12-12T11:28:54.244Z,99255.05
2017-12-12T11:31:21.740Z,99264.71
2017-12-12T11:33:49.252Z,99266.41
2017-12-12T11:36:16.758Z,99269.34
2017-12-12T11:38:44.274Z,99275.59
2017-12-12T11:41:11.769Z,99283.65
2017-12-12T11:43:39.311Z,99280.27
2017-12-12T11:46:06.803Z,99275.14
2017-12-12T11:48:34.338Z,99271.38
2017-12-12T11:51:02.341Z,99272.22
2017-12-12T11:53:29.825Z,99278.09
2017-12-12T11:55:57.321Z,99279.30
2017-12-12T11:58:24.820Z,99283.11
2017-12-12T12:00:52.360Z,99283.94
2017-12-12T12:03:19.847Z,99297.02
2017-12-12T12:05:48.851Z,99308.34
2017-12-12T12:08:16.364Z,99304.14
2017-12-12T12:10:43.858Z,99303.73
2017-12-12T12:13:11.392Z,99312.16
2017-12-12T12:15:38.889Z,99314.70
2017-12-12T12:18:06.404Z,99321.84
2017-12-12T12:20:33.917Z,99319.31
2017-12-12T12:23:01.427Z,99312.13
2017-12-12T12:25:28.939Z,99329.41
2017-12-12T12:27:56.445Z,99335.31
2017-12-12T12:30:23.987Z,99326.92
2017-12-12T12:32:51.498Z,99337.06
2017-12-12T12:35:19.007Z,99335.36
2017-12-12T12:37:46.524Z,99349.70
2017-12-12T12:40:14.012Z,99353.94
2017-12-12T12:42:41.493Z,99362.38
2017-12-12T12:45:09.007Z,99368.27
2017-12-12T12:47:36.520Z,99371.21
2017-12-12T12:50:04.035Z,99378.41
2017-12-12T12:52:31.529Z,99377.56
2017-12-12T12:54:59.891Z,99386.41
2017-12-12T12:57:27.368Z,99391.89
2017-12-12T12:59:54.849Z,99396.09
2017-12-12T13:02:22.342Z,99395.66
2017-12-12T13:04:49.813Z,99409.16
2017-12-12T13:07:17.314Z,99401.98
2017-12-12T13:09:44.808Z,99410.00
2017-12-12T13:12:12.284Z,99423.89
2017-12-12T13:14:39.784Z,99420.53
2017-12-12T13:17:07.301Z,99424.76
2017-12-12T13:19:34.777Z,99426.42
2017-12-12T13:22:02.261Z,99428.97
2017-12-12T13:24:29.731Z,99430.22
2017-12-12T13:26:57.264Z,99442.44
2017-12-12T13:29:24.792Z,99447.07
2017-12-12T13:31:52.293Z,99456.34
2017-12-12T13:34:19.795Z,99471.08
2017-12-12T13:36:47.305Z,99476.97
2017-12-12T13:39:14.789Z,99488.78
2017-12-12T13:41:42.283Z,99489.20
2017-12-12T13:44:09.770Z,99500.59
2017-12-12T13:46:37.280Z,99510.27
2017-12-12T13:49:04.786Z,99508.57
2017-12-12T13:51:32.292Z,99516.16
2017-12-12T13:53:59.820Z,99527.52
2017-12-12T13:56:30.706Z,99538.49
2017-12-12T13:58:58.193Z,99544.80
2017-12-12T14:01:25.668Z,99560.37
2017-12-12T14:03:53.161Z,99569.22
2017-12-12T14:06:20.687Z,99578.89
2017-12-12T14:08:48.181Z,99587.30
2017-12-12T14:11:15.665Z,99600.80
2017-12-12T14:13:43.177Z,99607.48
2017-12-12T14:16:10.657Z,99615.09
2017-12-12T14:18:38.172Z,99623.91
2017-12-12T14:21:05.672Z,99633.17
2017-12-12T14:23:33.172Z,99639.48
2017-12-12T14:26:00.680Z,99652.52
2017-12-12T14:28:28.235Z,99669.77
2017-12-12T14:30:55.713Z,99683.24
2017-12-12T14:33:23.224Z,99678.63
2017-12-12T14:35:50.718Z,99686.63
2017-12-12T14:38:18.208Z,99690.80
2017-12-12T14:40:45.706Z,99700.09
2017-12-12T14:43:13.181Z,99708.08
2017-12-12T14:45:40.760Z,99719.00
2017-12-12T14:48:08.270Z,99724.07
2017-12-12T14:50:35.763Z,99737.14
2017-12-12T14:53:03.950Z,99744.70
2017-12-12T14:55:31.437Z,99753.94
2017-12-12T14:57:58.937Z,99766.59
2017-12-12T15:00:38.647Z,99773.30
2017-12-12T15:03:06.235Z,99787.19
2017-12-12T15:05:33.731Z,99802.36
2017-12-12T15:08:01.217Z,99803.59
2017-12-12T15:10:28.730Z,99805.33
2017-12-12T15:12:56.229Z,99815.84
2017-12-12T15:15:23.710Z,99827.56
2017-12-12T15:17:51.235Z,99833.91
2017-12-12T15:20:18.743Z,99846.13
2017-12-12T15:22:46.262Z,99849.01
2017-12-12T15:25:13.761Z,99863.34
2017-12-12T15:27:41.772Z,99863.75
2017-12-12T15:30:09.301Z,99868.38
2017-12-12T15:32:36.823Z,99884.81
2017-12-12T15:35:04.297Z,99887.73
2017-12-12T15:37:31.791Z,99893.64
2017-12-12T15:39:59.296Z,99900.77
2017-12-12T15:42:26.791Z,99906.67
2017-12-12T15:44:54.276Z,99916.33
2017-12-12T15:47:21.853Z,99920.50
2017-12-12T15:49:49.341Z,99930.61
2017-12-12T15:52:16.835Z,99935.22
2017-12-12T15:54:44.349Z,99949.50
2017-12-12T15:57:11.839Z,99953.69
2017-12-12T15:59:39.349Z,99961.67
2017-12-12T16:02:06.871Z,99970.61
2017-12-12T16:04:34.368Z,99977.78
2017-12-12T16:07:01.871Z,99981.09
2017-12-12T16:09:29.381Z,99986.05
2017-12-12T16:11:57.958Z,99985.66
2017-12-12T16:14:25.463Z,99989.84
2017-12-12T16:16:52.973Z,99986.02
2017-12-12T16:19:20.477Z,99996.11
2017-12-12T16:21:48.125Z,99996.13
2017-12-12T16:24:15.632Z,99992.25
2017-12-12T16:26:43.143Z,100005.34
2017-12-12T16:29:10.655Z,100013.78
2017-12-12T16:31:38.181Z,100019.16
2017-12-12T16:34:05.688Z,100024.70
2017-12-12T16:36:33.193Z,100025.14
2017-12-12T16:39:00.735Z,100038.62
2017-12-12T16:41:28.230Z,100042.39
2017-12-12T16:43:55.734Z,100039.02
2017-12-12T16:46:23.230Z,100052.08
2017-12-12T16:48:50.739Z,100060.55
2017-12-12T16:51:18.250Z,100056.25
2017-12-12T16:53:45.999Z,100066.34
2017-12-12T16:56:13.492Z,100064.63
2017-12-12T16:58:40.987Z,100066.63
2017-12-12T17:01:09.192Z,100068.80
2017-12-12T17:03:36.715Z,100070.50
2017-12-12T17:06:04.242Z,100073.92
2017-12-12T17:08:32.896Z,100086.53
2017-12-12T17:11:00.625Z,100082.80
2017-12-12T17:13:28.128Z,100087.91
2017-12-12T17:15:55.697Z,100092.10
2017-12-12T17:18:24.075Z,100098.02
2017-12-12T17:20:51.591Z,100103.02
2017-12-12T17:23:19.443Z,100113.58
2017-12-12T17:25:46.948Z,100114.48
2017-12-12T17:28:14.446Z,100118.70
2017-12-12T17:30:41.998Z,100122.98
2017-12-12T17:33:09.960Z,100125.06
2017-12-12T17:35:37.482Z,100133.55
2017-12-12T17:38:04.982Z,100138.60
2017-12-12T17:40:32.511Z,100147.02
2017-12-12T17:43:00.009Z,100150.44
2017-12-12T17:45:27.526Z,100153.38
2017-12-12T17:47:55.023Z,100156.80
2017-12-12T17:50:22.672Z,100155.11
2017-12-12T17:52:50.228Z,100160.61
2017-12-12T17:55:25.290Z,100156.86
2017-12-12T17:57:52.859Z,100167.86
2017-12-12T18:00:20.419Z,100171.57
2017-12-12T18:02:47.944Z,100176.28
2017-12-12T18:05:15.428Z,100177.56
2017-12-12T18:07:42.924Z,100183.46
2017-12-12T18:10:10.409Z,100178.88
2017-12-12T18:12:37.931Z,100178.42
2017-12-12T18:15:05.630Z,100190.68
2017-12-12T18:17:33.183Z,100193.61
2017-12-12T18:20:00.659Z,100208.81
2017-12-12T18:22:28.261Z,100204.19
2017-12-12T18:24:55.795Z,100212.61
2017-12-12T18:27:23.292Z,100218.99
2017-12-12T18:29:50.820Z,100225.29
2017-12-12T18:32:18.322Z,100231.61
2017-12-12T18:34:45.838Z,100243.78
2017-12-12T18:37:13.351Z,100237.92
2017-12-12T18:39:40.837Z,100242.16
2017-12-12T18:42:08.405Z,100244.68
2017-12-12T18:44:35.948Z,100240.89
2017-12-12T18:47:03.444Z,100246.39
2017-12-12T18:49:31.027Z,100248.08
2017-12-12T18:51:58.588Z,100243.91
2017-12-12T18:54:26.101Z,100249.36
2017-12-12T18:56:53.636Z,100248.97
2017-12-12T18:59:21.137Z,100258.67
2017-12-12T19:01:48.743Z,100249.83
2017-12-12T19:04:16.254Z,100256.15
2017-12-12T19:06:43.751Z,100258.23
2017-12-12T19:09:11.279Z,100262.42
2017-12-12T19:11:38.820Z,100271.23
2017-12-12T19:14:06.333Z,100267.42
2017-12-12T19:16:33.864Z,100276.30
2017-12-12T19:19:01.642Z,100273.27
2017-12-12T19:21:29.140Z,100283.41
2017-12-12T19:26:34.195Z,100287.14
2017-12-12T19:29:02.011Z,100289.25
2017-12-12T19:31:29.527Z,100287.98
2017-12-12T19:33:57.071Z,100290.14
2017-12-12T19:36:24.647Z,100295.62
2017-12-12T19:38:52.147Z,100301.52
2017-12-12T19:41:19.661Z,100306.17
2017-12-12T19:43:47.284Z,100301.14
2017-12-12T19:46:14.805Z,100306.98
2017-12-12T19:48:42.311Z,100305.75
2017-12-12T19:51:09.837Z,100312.13
2017-12-12T19:53:37.368Z,100315.02
2017-12-12T19:56:04.865Z,100314.67
2017-12-12T19:58:32.424Z,100314.63
2017-12-12T20:00:59.954Z,100316.39
2017-12-12T20:03:28.245Z,100319.30
2017-12-12T20:05:55.741Z,100330.33
2017-12-12T20:08:23.269Z,100332.00
2017-12-12T20:10:50.785Z,100333.73
2017-12-12T20:13:18.318Z,100339.16
2017-12-12T20:15:45.841Z,100338.70
2017-12-12T20:18:13.320Z,100341.20
2017-12-12T20:20:40.833Z,100346.29
2017-12-12T20:23:09.198Z,100352.16
2017-12-12T20:25:36.729Z,100354.69
2017-12-12T20:28:04.229Z,100355.56
2017-12-12T20:30:31.738Z,100354.77
2017-12-12T20:32:59.354Z,100358.56
2017-12-12T20:35:26.867Z,100362.35
2017-12-12T20:37:54.450Z,100368.70
2017-12-12T20:40:21.963Z,100372.09
2017-12-12T20:42:49.477Z,100377.48
2017-12-12T20:45:16.993Z,100376.65
2017-12-12T20:47:44.668Z,100384.25
2017-12-12T20:50:12.182Z,100385.52
2017-12-12T20:52:39.691Z,100378.70
2017-12-12T20:55:07.193Z,100385.02
2017-12-12T20:57:34.718Z,100386.70
2017-12-12T21:00:02.220Z,100381.64
2017-12-12T21:02:29.716Z,100385.41
2017-12-12T21:04:57.248Z,100386.76
2017-12-12T21:07:30.369Z,100391.33
2017-12-12T21:09:57.880Z,100391.75
2017-12-12T21:12:25.417Z,100392.53
2017-12-12T21:14:52.937Z,100385.80
2017-12-12T21:17:20.448Z,100378.67
2017-12-12T21:19:47.977Z,100378.09
2017-12-12T21:22:15.472Z,100377.14
2017-12-12T21:24:42.971Z,100377.05
2017-12-12T21:27:10.476Z,100382.85
2017-12-12T21:29:37.978Z,100382.40
2017-12-12T21:32:05.583Z,100394.52
2017-12-12T21:34:33.089Z,100391.50
2017-12-12T21:37:00.599Z,100387.67
2017-12-12T21:39:28.125Z,100390.45
2017-12-12T21:41:55.615Z,100398.45
2017-12-12T21:44:23.153Z,100398.84
2017-12-12T21:46:50.670Z,100401.33
2017-12-12T21:49:18.195Z,100405.39
2017-12-12T21:51:45.705Z,100401.50
2017-12-12T21:54:13.205Z,100401.89
2017-12-12T21:56:40.690Z,100400.13
2017-12-12T21:59:08.184Z,100398.52
2017-12-12T22:01:35.696Z,100404.10
2017-12-12T22:04:03.189Z,100405.33
2017-12-12T22:06:30.685Z,100406.63
2017-12-12T22:08:58.168Z,100411.75
2017-12-12T22:11:25.671Z,100410.91
2017-12-12T22:13:53.805Z,100415.15
2017-12-12T22:16:21.328Z,100410.97
2017-12-12T22:18:48.884Z,100425.80
2017-12-12T22:21:16.410Z,100421.56
2017-12-12T22:23:43.900Z,100425.91
2017-12-12T22:26:11.407Z,100428.82
2017-12-12T22:28:38.913Z,100424.69
2017-12-12T22:31:06.417Z,100420.50
2017-12-12T22:33:33.929Z,100420.05
2017-12-12T22:36:01.464Z,100420.44
2017-12-12T22:38:28.992Z,100419.24
2017-12-12T22:40:56.499Z,100423.25
2017-12-12T22:43:24.042Z,100421.07
2017-12-12T22:45:51.595Z,100430.33
2017-12-12T22:48:19.111Z,100427.31
2017-12-12T22:50:46.602Z,100429.38
2017-12-12T22:53:14.107Z,100426.50
2017-12-12T22:55:41.619Z,100424.61
2017-12-12T22:58:09.143Z,100424.15
2017-12-12T23:00:36.655Z,100419.48
2017-12-12T23:03:04.178Z,100419.52
2017-12-12T23:05:31.785Z,100412.41
2017-12-12T23:07:59.281Z,100414.82
2017-12-12T23:10:26.776Z,100414.28
2017-12-12T23:12:54.273Z,100417.61
2017-12-12T23:15:21.785Z,100426.94
2017-12-12T23:17:49.289Z,100423.84
2017-12-12T23:20:16.806Z,100417.61
2017-12-12T23:22:44.347Z,100421.62
2017-12-12T23:25:11.855Z,100420.41
2017-12-12T23:27:39.381Z,100418.76
2017-12-12T23:30:06.891Z,100412.83
2017-12-12T23:32:34.429Z,100414.41
2017-12-12T23:35:01.931Z,100411.11
2017-12-12T23:37:29.466Z,100408.17
2017-12-12T23:39:56.999Z,100405.23
2017-12-12T23:42:24.501Z,100401.45
2017-12-12T23:44:52.004Z,100403.13
2017-12-12T23:47:19.516Z,100403.89
2017-12-12T23:49:47.030Z,100405.99
2017-12-12T23:52:14.529Z,100404.27
2017-12-12T23:54:42.024Z,100412.19
2017-12-12T23:57:09.517Z,100416.77
2017-12-12T23:59:37.041Z,100418.80
